createdAt,value
2017-11-19T00:00:50.366Z,14.55
2017-11-19T00:03:18.162Z,13.13
2017-11-19T00:05:46.661Z,14.20
2017-11-19T00:08:13.699Z,13.85
2017-11-19T00:10:41.581Z,11.18
2017-11-19T00:13:09.913Z,13.43
2017-11-19T00:15:36.987Z,12.75
2017-11-19T00:18:07.512Z,14.90
2017-11-19T00:20:34.445Z,12.55
2017-11-19T00:23:02.357Z,12.75
2017-11-19T00:25:29.389Z,12.15
2017-11-19T00:27:57.152Z,11.12
2017-11-19T00:30:26.843Z,12.73
2017-11-19T00:32:53.953Z,13.77
2017-11-19T00:35:21.151Z,13.18
2017-11-19T00:37:48.970Z,13.68
2017-11-19T00:40:16.094Z,14.38
2017-11-19T00:42:43.167Z,12.35
2017-11-19T00:45:11.204Z,13.25
2017-11-19T00:47:39.085Z,15.35
2017-11-19T00:50:06.514Z,12.68
2017-11-19T00:52:33.706Z,14.45
2017-11-19T00:55:00.915Z,12.20
2017-11-19T00:57:28.071Z,12.90
2017-11-19T00:59:55.853Z,12.60
2017-11-19T01:02:22.933Z,13.82
2017-11-19T01:04:50.013Z,12.32
2017-11-19T01:07:17.024Z,11.80
2017-11-19T01:09:44.016Z,13.00
2017-11-19T01:12:11.261Z,12.73
2017-11-19T01:14:38.167Z,12.20
2017-11-19T01:17:05.218Z,13.23
2017-11-19T01:19:32.284Z,12.45
2017-11-19T01:21:59.446Z,12.20
2017-11-19T01:24:26.606Z,12.95
2017-11-19T01:26:54.026Z,13.10
2017-11-19T01:29:21.120Z,11.35
2017-11-19T01:31:48.247Z,12.98
2017-11-19T01:34:15.329Z,13.15
2017-11-19T01:36:43.160Z,13.02
2017-11-19T01:39:11.629Z,12.07
2017-11-19T01:41:38.799Z,12.68
2017-11-19T01:44:05.977Z,11.98
2017-11-19T01:46:33.743Z,15.00
2017-11-19T01:49:00.871Z,13.65
2017-11-19T01:51:29.108Z,11.80
2017-11-19T01:53:56.357Z,13.43
2017-11-19T01:56:24.564Z,12.37
2017-11-19T01:58:51.625Z,14.32
2017-11-19T02:01:20.056Z,13.52
2017-11-19T02:03:47.104Z,12.55
2017-11-19T02:06:16.489Z,13.50
2017-11-19T02:08:43.379Z,13.10
2017-11-19T02:11:10.456Z,11.93
2017-11-19T02:13:37.455Z,14.00
2017-11-19T02:16:04.495Z,13.35
2017-11-19T02:18:32.588Z,14.00
2017-11-19T02:20:59.489Z,13.62
2017-11-19T02:23:26.449Z,12.40
2017-11-19T02:25:53.337Z,13.70
2017-11-19T02:28:20.326Z,13.43
2017-11-19T02:30:48.220Z,14.05
2017-11-19T02:33:15.846Z,13.75
2017-11-19T02:35:44.987Z,13.77
2017-11-19T02:38:14.353Z,15.60
2017-11-19T02:40:44.647Z,12.93
2017-11-19T02:43:15.933Z,12.23
2017-11-19T02:45:42.881Z,13.02
2017-11-19T02:48:13.475Z,14.48
2017-11-19T02:50:40.439Z,13.25
2017-11-19T02:53:07.342Z,12.98
2017-11-19T02:55:37.342Z,14.00
2017-11-19T02:58:04.957Z,15.02
2017-11-19T03:00:31.863Z,13.27
2017-11-19T03:02:58.877Z,14.57
2017-11-19T03:05:25.946Z,13.30
2017-11-19T03:07:53.738Z,13.02
2017-11-19T03:10:20.668Z,13.00
2017-11-19T03:12:47.735Z,13.32
2017-11-19T03:15:14.679Z,12.80
2017-11-19T03:17:41.704Z,12.77
2017-11-19T03:20:09.328Z,13.40
2017-11-19T03:22:36.233Z,13.95
2017-11-19T03:25:03.312Z,13.32
2017-11-19T03:27:32.892Z,12.93
2017-11-19T03:29:59.958Z,13.10
2017-11-19T03:32:26.932Z,13.93
2017-11-19T03:34:53.806Z,13.10
2017-11-19T03:37:21.541Z,13.10
2017-11-19T03:39:50.893Z,12.85
2017-11-19T03:42:17.943Z,12.77
2017-11-19T03:44:44.951Z,12.80
2017-11-19T03:47:11.887Z,13.77
2017-11-19T03:49:38.884Z,13.40
2017-11-19T03:52:05.768Z,12.95
2017-11-19T03:54:32.782Z,10.50
2017-11-19T03:56:59.677Z,10.82
2017-11-19T03:59:26.569Z,11.48
2017-11-19T04:01:53.497Z,10.85
2017-11-19T04:04:21.105Z,12.80
2017-11-19T04:06:48.865Z,12.95
2017-11-19T04:09:16.744Z,12.85
2017-11-19T04:11:43.602Z,11.95
2017-11-19T04:14:11.812Z,12.40
2017-11-19T04:16:38.700Z,12.30
2017-11-19T04:19:06.978Z,12.13
2017-11-19T04:21:33.854Z,12.95
2017-11-19T04:24:00.788Z,13.57
2017-11-19T04:26:27.749Z,12.77
2017-11-19T04:28:54.696Z,13.23
2017-11-19T04:31:22.898Z,12.05
2017-11-19T04:33:52.588Z,13.38
2017-11-19T04:36:20.387Z,11.05
2017-11-19T04:38:47.337Z,9.93
2017-11-19T04:41:14.342Z,8.57
2017-11-19T04:43:41.336Z,8.43
2017-11-19T04:46:08.290Z,8.55
2017-11-19T04:48:35.285Z,7.90
2017-11-19T04:51:02.181Z,6.57
2017-11-19T04:53:29.170Z,6.97
2017-11-19T04:55:56.069Z,7.32
2017-11-19T04:58:22.937Z,6.55
2017-11-19T05:00:49.874Z,7.47
2017-11-19T05:03:16.894Z,5.72
2017-11-19T05:05:44.544Z,4.97
2017-11-19T05:08:12.192Z,5.00
2017-11-19T05:10:39.197Z,5.68
2017-11-19T05:13:06.098Z,3.90
2017-11-19T05:15:33.054Z,4.90
2017-11-19T05:18:00.766Z,4.22
2017-11-19T05:20:27.787Z,4.80
2017-11-19T05:22:54.724Z,3.50
2017-11-19T05:25:22.407Z,4.60
2017-11-19T05:30:34.757Z,4.45
2017-11-19T05:33:01.830Z,3.85
2017-11-19T05:35:28.840Z,3.30
2017-11-19T05:37:56.566Z,3.97
2017-11-19T05:40:23.520Z,4.10
2017-11-19T05:42:51.199Z,4.37
2017-11-19T05:45:18.142Z,3.60
2017-11-19T05:47:45.118Z,3.50
2017-11-19T05:50:12.006Z,3.10
2017-11-19T05:52:38.973Z,3.70
2017-11-19T05:55:05.864Z,3.40
2017-11-19T05:57:32.825Z,3.42
2017-11-19T05:59:59.813Z,3.45
2017-11-19T06:02:26.733Z,2.95
2017-11-19T06:04:53.673Z,4.15
2017-11-19T06:07:27.381Z,3.78
2017-11-19T06:10:03.059Z,3.60
2017-11-19T06:12:34.719Z,3.20
2017-11-19T06:15:06.347Z,4.28
2017-11-19T06:17:40.081Z,2.42
2017-11-19T06:20:14.226Z,2.97
2017-11-19T06:22:42.055Z,3.05
2017-11-19T06:25:10.001Z,3.15
2017-11-19T06:27:40.044Z,3.00
2017-11-19T06:30:08.452Z,4.22
2017-11-19T06:32:38.023Z,4.40
2017-11-19T06:35:05.729Z,2.40
2017-11-19T06:37:32.605Z,3.50
2017-11-19T06:39:59.653Z,3.50
2017-11-19T06:42:29.509Z,2.92
2017-11-19T06:44:57.116Z,3.22
2017-11-19T06:47:24.013Z,3.12
2017-11-19T06:49:50.979Z,3.65
2017-11-19T06:52:18.029Z,3.70
2017-11-19T06:54:44.950Z,3.95
2017-11-19T06:57:11.817Z,2.90
2017-11-19T06:59:38.799Z,3.60
2017-11-19T07:02:05.682Z,3.28
2017-11-19T07:04:32.637Z,2.85
2017-11-19T07:07:00.249Z,3.00
2017-11-19T07:09:27.131Z,3.72
2017-11-19T07:11:54.079Z,3.25
2017-11-19T07:14:20.983Z,3.05
2017-11-19T07:16:47.920Z,2.95
2017-11-19T07:19:14.888Z,2.45
2017-11-19T07:21:41.797Z,2.87
2017-11-19T07:24:08.792Z,2.22
2017-11-19T07:26:35.712Z,3.70
2017-11-19T07:29:02.726Z,4.32
2017-11-19T07:31:29.697Z,3.75
2017-11-19T07:33:56.780Z,5.97
2017-11-19T07:36:23.787Z,7.05
2017-11-19T07:38:50.845Z,8.50
2017-11-19T07:41:17.793Z,7.78
2017-11-19T07:43:44.691Z,4.15
2017-11-19T07:46:11.721Z,4.75
2017-11-19T07:48:38.661Z,3.95
2017-11-19T07:51:05.718Z,3.67
2017-11-19T07:53:32.621Z,3.63
2017-11-19T07:55:59.650Z,4.40
2017-11-19T07:58:26.624Z,3.43
2017-11-19T08:00:53.592Z,3.30
2017-11-19T08:03:20.606Z,3.30
2017-11-19T08:05:47.655Z,4.17
2017-11-19T08:08:14.587Z,4.13
2017-11-19T08:10:43.946Z,3.47
2017-11-19T08:13:11.323Z,3.40
2017-11-19T08:15:42.777Z,3.70
2017-11-19T08:18:11.609Z,3.70
2017-11-19T08:20:38.558Z,3.50
2017-11-19T08:23:05.621Z,4.37
2017-11-19T08:25:33.100Z,3.50
2017-11-19T08:28:02.710Z,5.40
2017-11-19T08:30:32.549Z,5.10
2017-11-19T08:33:02.253Z,4.23
2017-11-19T08:35:33.106Z,3.20
2017-11-19T08:38:02.586Z,4.43
2017-11-19T08:40:35.103Z,5.10
2017-11-19T08:43:02.026Z,5.37
2017-11-19T08:45:31.465Z,5.10
2017-11-19T08:48:02.860Z,5.87
2017-11-19T08:50:32.073Z,6.80
2017-11-19T08:52:59.010Z,5.97
2017-11-19T08:55:40.779Z,4.77
2017-11-19T08:58:10.783Z,5.47
2017-11-19T09:00:37.722Z,5.47
2017-11-19T09:03:04.711Z,4.90
2017-11-19T09:05:31.753Z,5.47
2017-11-19T09:07:58.889Z,5.20
2017-11-19T09:10:25.899Z,3.63
2017-11-19T09:12:53.510Z,4.30
2017-11-19T09:15:20.404Z,4.20
2017-11-19T09:17:48.080Z,3.10
2017-11-19T09:20:15.076Z,3.30
2017-11-19T09:22:42.029Z,3.97
2017-11-19T09:25:08.977Z,4.03
2017-11-19T09:27:35.857Z,3.73
2017-11-19T09:30:03.570Z,2.70
2017-11-19T09:32:30.543Z,3.00
2017-11-19T09:35:02.422Z,2.50
2017-11-19T09:37:29.609Z,3.23
2017-11-19T09:39:57.199Z,2.90
2017-11-19T09:42:24.339Z,3.40
2017-11-19T09:44:52.869Z,2.93
2017-11-19T09:47:19.969Z,2.93
2017-11-19T09:49:47.969Z,2.57
2017-11-19T09:52:15.386Z,2.57
2017-11-19T09:54:42.395Z,3.13
2017-11-19T09:57:09.376Z,3.40
2017-11-19T09:59:40.870Z,2.80
2017-11-19T10:02:09.208Z,2.50
2017-11-19T10:04:37.317Z,2.43
2017-11-19T10:09:41.996Z,3.23
2017-11-19T10:12:09.697Z,2.60
2017-11-19T10:14:37.046Z,2.60
2017-11-19T10:17:09.949Z,2.70
2017-11-19T10:19:37.311Z,2.50
2017-11-19T10:22:05.653Z,5.17
2017-11-19T10:24:32.764Z,4.17
2017-11-19T10:26:59.697Z,2.60
2017-11-19T10:29:27.239Z,2.67
2017-11-19T10:31:54.211Z,4.43
2017-11-19T10:34:22.428Z,2.80
2017-11-19T10:36:57.259Z,3.40
2017-11-19T10:39:25.437Z,2.70
2017-11-19T10:41:53.065Z,2.90
2017-11-19T10:44:29.088Z,3.10
2017-11-19T10:46:57.093Z,3.40
2017-11-19T10:49:27.468Z,2.50
2017-11-19T10:51:56.944Z,2.50
2017-11-19T10:54:23.923Z,2.63
2017-11-19T10:56:52.194Z,3.20
2017-11-19T10:59:19.535Z,4.10
2017-11-19T11:01:46.452Z,5.30
2017-11-19T11:04:13.362Z,4.37
2017-11-19T11:06:47.807Z,2.70
2017-11-19T11:09:15.875Z,4.30
2017-11-19T11:11:42.835Z,2.70
2017-11-19T11:14:11.074Z,3.10
2017-11-19T11:16:45.697Z,3.00
2017-11-19T11:19:13.881Z,2.30
2017-11-19T11:21:40.864Z,2.90
2017-11-19T11:24:07.777Z,2.73
2017-11-19T11:26:34.838Z,3.23
2017-11-19T11:29:07.445Z,3.90
2017-11-19T11:31:43.194Z,2.60
2017-11-19T11:34:19.180Z,3.17
2017-11-19T11:36:56.500Z,2.80
2017-11-19T11:39:34.839Z,2.63
2017-11-19T11:42:05.509Z,4.13
2017-11-19T11:44:32.430Z,3.13
2017-11-19T11:46:59.417Z,3.93
2017-11-19T11:49:26.710Z,2.70
2017-11-19T11:51:53.588Z,4.30
2017-11-19T11:54:20.676Z,3.40
2017-11-19T11:56:48.351Z,4.00
2017-11-19T11:59:16.015Z,3.27
2017-11-19T12:01:43.019Z,2.70
2017-11-19T12:04:10.112Z,2.57
2017-11-19T12:06:37.812Z,2.63
2017-11-19T12:09:04.909Z,2.67
2017-11-19T12:11:32.657Z,2.60
2017-11-19T12:13:59.626Z,1.70
2017-11-19T12:16:27.325Z,2.00
2017-11-19T12:18:54.229Z,2.37
2017-11-19T12:21:21.929Z,2.30
2017-11-19T12:23:48.835Z,2.00
2017-11-19T12:26:16.644Z,2.53
2017-11-19T12:28:43.705Z,1.87
2017-11-19T12:31:10.729Z,1.70
2017-11-19T12:33:37.704Z,2.40
2017-11-19T12:36:04.674Z,2.00
2017-11-19T12:38:31.660Z,2.20
2017-11-19T12:40:58.708Z,2.30
2017-11-19T12:43:27.658Z,2.27
2017-11-19T12:45:58.548Z,2.10
2017-11-19T12:48:27.721Z,2.63
2017-11-19T12:51:01.403Z,3.97
2017-11-19T12:53:30.299Z,2.40
2017-11-19T12:55:57.393Z,2.63
2017-11-19T12:58:30.701Z,2.40
2017-11-19T13:00:58.010Z,2.43
2017-11-19T13:03:24.957Z,2.63
2017-11-19T13:05:54.242Z,3.63
2017-11-19T13:08:22.915Z,2.13
2017-11-19T13:10:50.767Z,2.50
2017-11-19T13:13:19.192Z,2.63
2017-11-19T13:15:48.498Z,2.60
2017-11-19T13:18:22.120Z,2.83
2017-11-19T13:20:49.982Z,2.13
2017-11-19T13:23:17.610Z,2.00
2017-11-19T13:25:44.662Z,2.47
2017-11-19T13:28:11.630Z,2.70
2017-11-19T13:30:38.601Z,2.73
2017-11-19T13:33:05.520Z,3.30
2017-11-19T13:35:33.310Z,1.70
2017-11-19T13:38:00.525Z,2.60
2017-11-19T13:40:27.468Z,3.47
2017-11-19T13:42:54.521Z,2.90
2017-11-19T13:45:21.400Z,2.83
2017-11-19T13:47:49.733Z,3.30
2017-11-19T13:50:22.322Z,2.40
2017-11-19T13:52:49.253Z,2.63
2017-11-19T13:55:16.123Z,3.03
2017-11-19T13:57:43.143Z,3.00
2017-11-19T14:00:10.095Z,2.90
2017-11-19T14:02:37.038Z,3.70
2017-11-19T14:05:04.046Z,2.60
2017-11-19T14:07:31.066Z,2.47
2017-11-19T14:09:58.065Z,2.50
2017-11-19T14:12:24.976Z,2.70
2017-11-19T14:14:51.906Z,2.67
2017-11-19T14:17:18.904Z,3.10
2017-11-19T14:19:46.555Z,3.80
2017-11-19T14:22:13.528Z,3.10
2017-11-19T14:24:40.559Z,2.87
2017-11-19T14:27:07.457Z,3.07
2017-11-19T14:29:34.365Z,3.00
2017-11-19T14:32:01.366Z,3.30
2017-11-19T14:34:28.838Z,2.77
2017-11-19T14:36:57.063Z,2.95
2017-11-19T14:39:25.721Z,2.53
2017-11-19T14:41:52.757Z,2.70
2017-11-19T14:44:25.040Z,2.50
2017-11-19T14:46:52.405Z,2.30
2017-11-19T14:49:19.385Z,2.97
2017-11-19T14:51:46.335Z,2.80
2017-11-19T14:54:14.006Z,3.00
2017-11-19T14:56:40.967Z,3.10
2017-11-19T14:59:07.921Z,2.47
2017-11-19T15:01:47.527Z,3.57
2017-11-19T15:04:15.761Z,3.80
2017-11-19T15:06:43.520Z,4.20
2017-11-19T15:09:10.545Z,3.87
2017-11-19T15:11:38.278Z,3.73
2017-11-19T15:14:05.153Z,3.77
2017-11-19T15:16:32.896Z,4.27
2017-11-19T15:18:59.775Z,3.27
2017-11-19T15:21:27.651Z,3.50
2017-11-19T15:23:54.549Z,3.35
2017-11-19T15:26:21.465Z,3.90
2017-11-19T15:28:52.825Z,5.63
2017-11-19T15:31:20.127Z,3.33
2017-11-19T15:33:53.959Z,2.63
2017-11-19T15:36:22.014Z,3.30
2017-11-19T15:38:49.041Z,2.97
2017-11-19T15:41:16.753Z,3.20
2017-11-19T15:43:43.713Z,3.60
2017-11-19T15:46:12.031Z,3.67
2017-11-19T15:48:39.764Z,3.10
2017-11-19T15:51:06.769Z,2.90
2017-11-19T15:53:33.633Z,3.20
2017-11-19T15:56:00.559Z,3.73
2017-11-19T15:58:27.602Z,3.77
2017-11-19T16:00:54.684Z,3.53
2017-11-19T16:03:28.577Z,4.53
2017-11-19T16:05:57.660Z,4.43
2017-11-19T16:08:26.486Z,3.97
2017-11-19T16:10:53.676Z,4.57
2017-11-19T16:13:21.583Z,4.90
2017-11-19T16:15:48.589Z,4.37
2017-11-19T16:18:19.267Z,5.10
2017-11-19T16:20:46.337Z,3.75
2017-11-19T16:23:15.343Z,3.90
2017-11-19T16:25:42.690Z,4.07
2017-11-19T16:28:09.669Z,5.03
2017-11-19T16:30:36.543Z,5.33
2017-11-19T16:33:03.444Z,4.50
2017-11-19T16:35:30.445Z,4.10
2017-11-19T16:37:57.473Z,4.25
2017-11-19T16:40:24.391Z,4.97
2017-11-19T16:42:51.676Z,4.93
2017-11-19T16:45:19.131Z,4.03
2017-11-19T16:47:46.923Z,4.65
2017-11-19T16:50:14.207Z,4.00
2017-11-19T16:52:41.107Z,4.57
2017-11-19T16:55:08.034Z,4.25
2017-11-19T16:57:35.681Z,4.93
2017-11-19T17:00:05.652Z,3.70
2017-11-19T17:02:32.638Z,4.97
2017-11-19T17:04:59.509Z,3.75
2017-11-19T17:07:27.229Z,4.20
2017-11-19T17:09:54.131Z,4.93
2017-11-19T17:12:21.193Z,4.12
2017-11-19T17:14:48.085Z,3.90
2017-11-19T17:17:15.229Z,3.55
2017-11-19T17:19:43.053Z,4.07
2017-11-19T17:22:11.980Z,4.15
2017-11-19T17:24:39.276Z,3.78
2017-11-19T17:27:06.255Z,3.25
2017-11-19T17:29:33.218Z,3.77
2017-11-19T17:32:00.142Z,3.50
2017-11-19T17:34:27.163Z,3.95
2017-11-19T17:36:54.135Z,3.42
2017-11-19T17:39:21.801Z,4.97
2017-11-19T17:41:48.744Z,3.60
2017-11-19T17:44:15.772Z,3.57
2017-11-19T17:46:42.706Z,3.90
2017-11-19T17:49:10.024Z,4.80
2017-11-19T17:51:36.926Z,4.10
2017-11-19T17:54:03.990Z,3.70
2017-11-19T17:56:30.874Z,4.22
2017-11-19T17:58:57.937Z,4.57
2017-11-19T18:01:24.946Z,3.70
2017-11-19T18:03:51.864Z,5.07
2017-11-19T18:06:18.829Z,3.30
2017-11-19T18:08:45.924Z,3.75
2017-11-19T18:11:12.831Z,2.65
2017-11-19T18:13:39.767Z,4.20
2017-11-19T18:16:06.824Z,4.30
2017-11-19T18:18:34.474Z,3.33
2017-11-19T18:21:01.638Z,3.20
2017-11-19T18:23:28.784Z,4.30
2017-11-19T18:25:55.756Z,3.55
2017-11-19T18:28:22.848Z,3.75
2017-11-19T18:30:50.571Z,3.92
2017-11-19T18:33:17.520Z,3.92
2017-11-19T18:35:44.408Z,3.40
2017-11-19T18:38:11.393Z,3.75
2017-11-19T18:40:38.263Z,4.45
2017-11-19T18:43:05.133Z,4.43
2017-11-19T18:45:32.074Z,4.50
2017-11-19T18:47:58.961Z,3.87
2017-11-19T18:50:25.936Z,3.30
2017-11-19T18:52:52.816Z,3.35
2017-11-19T18:55:20.750Z,4.93
2017-11-19T18:57:47.697Z,4.05
2017-11-19T19:00:14.628Z,4.32
2017-11-19T19:02:41.688Z,5.00
2017-11-19T19:05:08.677Z,4.28
2017-11-19T19:07:35.678Z,4.95
2017-11-19T19:10:02.753Z,4.90
2017-11-19T19:12:29.655Z,4.50
2017-11-19T19:14:56.593Z,4.35
2017-11-19T19:17:23.564Z,4.68
2017-11-19T19:19:50.455Z,4.53
2017-11-19T19:22:18.225Z,6.73
2017-11-19T19:24:46.356Z,4.57
2017-11-19T19:27:13.368Z,5.82
2017-11-19T19:29:41.217Z,7.55
2017-11-19T19:32:08.072Z,7.78
2017-11-19T19:34:35.783Z,8.30
2017-11-19T19:37:02.749Z,6.40
2017-11-19T19:39:29.626Z,6.57
2017-11-19T19:41:57.363Z,5.25
2017-11-19T19:44:24.262Z,5.15
2017-11-19T19:46:51.159Z,5.57
2017-11-19T19:49:19.571Z,5.40
2017-11-19T19:51:46.559Z,5.45
2017-11-19T19:54:13.653Z,5.37
2017-11-19T19:56:41.710Z,5.10
2017-11-19T19:59:08.835Z,4.97
2017-11-19T20:01:36.426Z,3.67
2017-11-19T20:04:04.280Z,4.45
2017-11-19T20:06:32.328Z,5.25
2017-11-19T20:08:59.554Z,4.95
2017-11-19T20:11:27.239Z,6.07
2017-11-19T20:13:54.343Z,5.20
2017-11-19T20:16:22.845Z,6.07
2017-11-19T20:18:49.936Z,5.90
2017-11-19T20:21:17.053Z,6.75
2017-11-19T20:23:45.101Z,5.93
2017-11-19T20:26:12.091Z,6.00
2017-11-19T20:28:39.884Z,4.65
2017-11-19T20:31:06.789Z,5.50
2017-11-19T20:33:34.548Z,5.05
2017-11-19T20:36:01.997Z,5.15
2017-11-19T20:38:28.897Z,5.95
2017-11-19T20:40:56.102Z,5.00
2017-11-19T20:43:23.045Z,4.95
2017-11-19T20:45:50.184Z,5.22
2017-11-19T20:48:17.740Z,4.70
2017-11-19T20:50:45.928Z,5.12
2017-11-19T20:53:16.697Z,4.62
2017-11-19T20:55:43.937Z,4.80
2017-11-19T20:58:11.184Z,6.00
2017-11-19T21:00:38.628Z,4.55
2017-11-19T21:03:11.691Z,5.50
2017-11-19T21:05:39.533Z,4.72
2017-11-19T21:08:15.645Z,4.85
2017-11-19T21:10:43.647Z,4.95
2017-11-19T21:13:16.181Z,4.57
2017-11-19T21:15:49.039Z,4.80
2017-11-19T21:18:18.149Z,5.40
2017-11-19T21:20:47.795Z,7.53
2017-11-19T21:23:15.931Z,5.20
2017-11-19T21:25:45.688Z,6.60
2017-11-19T21:28:14.214Z,6.20
2017-11-19T21:30:44.229Z,6.97
2017-11-19T21:33:11.846Z,7.43
2017-11-19T21:35:40.499Z,7.03
2017-11-19T21:38:07.512Z,8.40
2017-11-19T21:40:34.524Z,7.60
2017-11-19T21:43:01.435Z,6.78
2017-11-19T21:45:29.124Z,6.37
2017-11-19T21:47:57.818Z,7.03
2017-11-19T21:50:26.206Z,5.72
2017-11-19T21:52:54.956Z,5.75
2017-11-19T21:55:23.586Z,7.85
2017-11-19T21:57:55.383Z,8.00
2017-11-19T22:00:25.264Z,7.28
2017-11-19T22:02:55.479Z,7.90
2017-11-19T22:05:26.341Z,8.70
2017-11-19T22:08:00.057Z,8.18
2017-11-19T22:10:32.224Z,8.18
2017-11-19T22:13:00.375Z,7.95
2017-11-19T22:15:27.377Z,7.50
2017-11-19T22:17:59.293Z,14.38
2017-11-19T22:20:33.066Z,14.30
2017-11-19T22:23:05.174Z,15.43
2017-11-19T22:25:39.795Z,16.67
2017-11-19T22:28:12.019Z,13.20
2017-11-19T22:30:46.140Z,11.15
2017-11-19T22:33:16.911Z,9.60
2017-11-19T22:35:48.392Z,11.25
2017-11-19T22:38:15.623Z,8.50
2017-11-19T22:40:42.785Z,8.10
2017-11-19T22:43:13.037Z,9.07
2017-11-19T22:45:42.474Z,8.70
2017-11-19T22:48:11.435Z,8.98
2017-11-19T22:50:39.869Z,7.37
2017-11-19T22:53:06.913Z,8.43
2017-11-19T22:55:33.893Z,7.75
2017-11-19T22:58:01.365Z,7.65
2017-11-19T23:00:30.853Z,6.87
2017-11-19T23:03:01.382Z,7.40
2017-11-19T23:05:36.479Z,7.45
2017-11-19T23:08:07.551Z,8.30
2017-11-19T23:10:42.946Z,7.68
2017-11-19T23:13:21.609Z,7.30
2017-11-19T23:15:52.101Z,7.30
2017-11-19T23:18:22.576Z,7.20
2017-11-19T23:20:49.617Z,6.78
2017-11-19T23:23:16.591Z,7.62
2017-11-19T23:25:43.462Z,6.82
2017-11-19T23:28:11.212Z,8.38
2017-11-19T23:30:38.373Z,7.80
2017-11-19T23:33:06.045Z,8.10
2017-11-19T23:35:33.736Z,7.25
2017-11-19T23:38:00.615Z,8.07
2017-11-19T23:40:27.473Z,7.50
2017-11-19T23:42:54.527Z,6.62
2017-11-19T23:45:22.405Z,7.45
2017-11-19T23:47:50.026Z,7.53
2017-11-19T23:50:17.021Z,8.50
2017-11-19T23:52:45.218Z,6.55
2017-11-19T23:55:12.405Z,7.15
2017-11-19T23:57:39.320Z,7.85
